Time;durP1;ratioP1;P1;durP2;ratioP2;P2;SDS_P1;SDS_P2;PMS_P1;PMS_P2;Temp;Humidity;BMP_temperature;BMP_pressure;BME280_temperature;BME280_humidity;BME280_pressure;Samples;Min_cycle;Max_cycle;Signal;HPM_P1;HPM_P2
2023/08/10 06:28:57;;;;;;;;;2.25;2.25;;;;;;;;5886796;24;8938;31
2023/08/10 06:32:25;;;;;;;;;2.00;2.00;;;;;;;;4809275;29;8861;-96
2023/08/10 06:37:30;;;;;;;;;1.50;1.50;;;;;;;;4798022;29;8854;-95
2023/08/10 06:40:16;;;;;;;;;1.25;1.25;;;;;;;;4785241;29;8828;-95
2023/08/10 06:42:41;;;;;;;;;2.75;2.75;;;;;;;;4787678;29;8854;-93
2023/08/10 06:45:17;;;;;;;;;;;;;;;;;;;;;
2023/08/10 06:47:43;;;;;;;;;1.50;1.50;;;;;;;;4788191;29;36755;-96
2023/08/10 06:57:00;;;;;;;;;1.00;1.00;;;;;;;;4713721;30;8996;-96
2023/08/10 06:59:26;;;;;;;;;0.25;0.25;;;;;;;;4701982;30;9822;-96
2023/08/10 07:01:51;;;;;;;;;2.00;2.00;;;;;;;;4700724;30;8944;-96
2023/08/10 07:16:40;;;;;;;;;1.00;1.00;;;;;;;;4753428;29;8827;-93
2023/08/10 07:19:11;;;;;;;;;0.00;0.00;;;;;;;;4782533;29;9742;-95
2023/08/10 07:21:36;;;;;;;;;0.00;0.00;;;;;;;;4765762;29;8795;-93
2023/08/10 07:24:05;;;;;;;;;1.33;1.33;;;;;;;;4780911;29;8901;-93
2023/08/10 07:26:41;;;;;;;;;1.00;1.00;;;;;;;;4784155;29;8772;-94
2023/08/10 07:29:07;;;;;;;;;1.50;1.50;;;;;;;;4786902;29;8832;-94
2023/08/10 07:31:32;;;;;;;;;1.00;1.00;;;;;;;;4792513;29;8977;-93
2023/08/10 07:34:05;;;;;;;;;0.00;0.00;;;;;;;;4807224;29;8932;-95
2023/08/10 07:36:31;;;;;;;;;1.00;1.00;;;;;;;;4798137;29;8875;-93
2023/08/10 07:38:56;;;;;;;;;1.00;1.00;;;;;;;;4790545;29;8926;-93
2023/08/10 07:41:55;;;;;;;;;1.67;1.67;;;;;;;;4802011;29;8954;-96
2023/08/10 07:44:20;;;;;;;;;2.00;2.00;;;;;;;;4804453;29;8836;-95
2023/08/10 07:47:16;;;;;;;;;1.00;1.00;;;;;;;;4806113;29;8865;-96
2023/08/10 07:49:43;;;;;;;;;1.25;1.25;;;;;;;;4807548;29;8993;-95
2023/08/10 07:54:57;;;;;;;;;0.50;0.50;;;;;;;;5046651;24;8853;-96
2023/08/10 07:57:22;;;;;;;;;0.00;0.00;;;;;;;;4790610;29;9687;-96
2023/08/10 07:59:47;;;;;;;;;3.00;1.00;;;;;;;;4779235;29;8855;-95
2023/08/10 08:02:32;;;;;;;;;;;;;;;;;;;;;
2023/08/10 08:04:58;;;;;;;;;1.25;1.25;;;;;;;;4782955;29;35191;-96
2023/08/10 08:07:42;;;;;;;;;;;;;;;;;;;;;
2023/08/10 08:10:23;;;;;;;;;;;;;;;;;;;;;
2023/08/10 08:12:53;;;;;;;;;0.25;0.25;;;;;;;;4783265;29;36899;-96
2023/08/10 08:21:57;;;;;;;;;0.75;0.75;;;;;;;;4723561;30;8806;-96
2023/08/10 08:27:18;;;;;;;;;0.75;0.75;;;;;;;;4730536;30;8814;-96
2023/08/10 08:33:09;;;;;;;;;1.00;1.00;;;;;;;;4729360;30;8822;-96
2023/08/10 08:36:00;;;;;;;;;0.25;0.25;;;;;;;;4736694;30;8834;-96
2023/08/10 08:38:51;;;;;;;;;1.00;1.00;;;;;;;;4697610;30;8838;-96
2023/08/10 08:44:35;;;;;;;;;;;;;;;;;;;;;
2023/08/10 08:47:29;;;;;;;;;0.00;0.00;;;;;;;;4790432;29;36992;-96
2023/08/10 08:50:06;;;;;;;;;;;;;;;;;;;;;
2023/08/10 08:53:00;;;;;;;;;1.00;0.50;;;;;;;;4790338;29;36132;-96
2023/08/10 08:55:37;;;;;;;;;1.00;1.00;;;;;;;;4772904;29;8923;-96
2023/08/10 08:59:04;;;;;;;;;;;;;;;;;;;;;
2023/08/10 09:01:36;;;;;;;;;0.75;0.75;;;;;;;;4787208;29;8820;-96
2023/08/10 09:04:34;;;;;;;;;;;;;;;;;;;;;
2023/08/10 09:16:46;;;;;;;;;;;;;;;;;;;;;
2023/08/10 09:19:21;;;;;;;;;0.00;0.00;;;;;;;;4748609;30;36975;-96
2023/08/10 09:21:46;;;;;;;;;0.00;0.00;;;;;;;;4732732;30;8946;-96
2023/08/10 09:24:28;;;;;;;;;1.00;1.00;;;;;;;;4766748;29;8957;-96
2023/08/10 09:26:53;;;;;;;;;0.00;0.00;;;;;;;;4768144;29;8865;-96
2023/08/10 09:29:33;;;;;;;;;0.67;0.67;;;;;;;;4790979;29;8844;-96
2023/08/10 09:31:59;;;;;;;;;0.50;0.50;;;;;;;;4772937;29;9391;-96
2023/08/10 09:34:27;;;;;;;;;0.33;0.33;;;;;;;;4793754;29;8922;-96
2023/08/10 09:36:57;;;;;;;;;0.00;0.00;;;;;;;;4769041;29;8857;-96
2023/08/10 09:39:22;;;;;;;;;0.00;0.00;;;;;;;;4774267;29;8847;-96
2023/08/10 09:41:52;;;;;;;;;1.00;1.00;;;;;;;;4767242;29;8827;-96
2023/08/10 09:44:25;;;;;;;;;0.50;0.50;;;;;;;;4783981;29;8807;-96
2023/08/10 09:46:59;;;;;;;;;0.00;0.00;;;;;;;;4776019;29;8839;-96
2023/08/10 09:49:28;;;;;;;;;0.00;0.00;;;;;;;;4788477;29;8803;-96
2023/08/10 09:51:56;;;;;;;;;0.00;0.00;;;;;;;;4788074;29;8820;-96
2023/08/10 09:54:22;;;;;;;;;0.00;0.00;;;;;;;;4785317;29;9707;-96
2023/08/10 09:56:53;;;;;;;;;1.00;1.00;;;;;;;;4785723;29;8878;-96
2023/08/10 09:59:39;;;;;;;;;1.00;1.00;;;;;;;;4779330;29;8771;-96
2023/08/10 10:02:11;;;;;;;;;0.00;0.00;;;;;;;;4778950;30;9353;-96
2023/08/10 10:05:09;;;;;;;;;0.75;0.75;;;;;;;;4801425;29;8786;-96
2023/08/10 10:07:41;;;;;;;;;0.50;0.50;;;;;;;;4763148;29;9838;-96
2023/08/10 10:10:12;;;;;;;;;0.75;0.75;;;;;;;;4792486;29;8849;-96
2023/08/10 10:12:53;;;;;;;;;0.75;0.75;;;;;;;;4785487;29;8909;-94
2023/08/10 10:15:19;;;;;;;;;1.00;1.00;;;;;;;;4786375;29;8858;-95
2023/08/10 10:17:44;;;;;;;;;1.00;1.00;;;;;;;;4789977;29;9599;-95
2023/08/10 10:20:11;;;;;;;;;0.33;0.33;;;;;;;;4790182;29;11768;-95
2023/08/10 10:22:37;;;;;;;;;1.00;1.00;;;;;;;;4788575;29;8823;-96
2023/08/10 10:25:03;;;;;;;;;0.00;0.00;;;;;;;;4790884;29;8804;-94
2023/08/10 10:27:49;;;;;;;;;0.67;0.67;;;;;;;;4792076;29;8897;-96
2023/08/10 10:36:36;;;;;;;;;;;;;;;;;;;;;
2023/08/10 10:44:56;;;;;;;;;1.00;1.00;;;;;;;;4823181;29;8759;-96
2023/08/10 10:47:31;;;;;;;;;0.75;0.75;;;;;;;;4827172;29;8819;-96
2023/08/10 10:50:02;;;;;;;;;0.50;0.50;;;;;;;;4819346;29;8766;-96
2023/08/10 10:52:38;;;;;;;;;1.00;1.00;;;;;;;;4810548;29;8736;-96
2023/08/10 10:55:07;;;;;;;;;0.25;0.25;;;;;;;;4827538;29;8926;-96
2023/08/10 10:57:33;;;;;;;;;0.75;0.75;;;;;;;;4826126;29;8842;-96
2023/08/10 10:59:59;;;;;;;;;0.25;0.25;;;;;;;;4822427;29;8825;-96
2023/08/10 11:02:25;;;;;;;;;1.00;1.00;;;;;;;;4809156;29;8850;-96
2023/08/10 11:04:51;;;;;;;;;1.75;1.75;;;;;;;;4807854;29;8837;-96
2023/08/10 11:07:16;;;;;;;;;0.67;0.67;;;;;;;;4802843;29;8857;-96
2023/08/10 11:09:42;;;;;;;;;1.00;1.00;;;;;;;;4822476;29;8858;-96
2023/08/10 11:12:07;;;;;;;;;1.00;1.00;;;;;;;;4828728;29;8858;-96
2023/08/10 11:14:32;;;;;;;;;0.00;0.00;;;;;;;;4809985;29;8871;-96
2023/08/10 11:16:57;;;;;;;;;2.00;2.00;;;;;;;;4825389;29;8933;-96
2023/08/10 11:19:23;;;;;;;;;1.00;1.00;;;;;;;;4809581;29;8883;-96
2023/08/10 11:21:51;;;;;;;;;1.00;1.00;;;;;;;;4825028;29;8831;-96
2023/08/10 11:24:16;;;;;;;;;0.75;0.75;;;;;;;;4804799;29;8843;-96
2023/08/10 11:26:42;;;;;;;;;0.00;0.00;;;;;;;;4824841;29;8846;-96
2023/08/10 11:29:09;;;;;;;;;0.67;0.67;;;;;;;;4820323;29;8882;-96
2023/08/10 11:31:39;;;;;;;;;0.75;0.75;;;;;;;;4808549;29;8865;-96
2023/08/10 11:34:16;;;;;;;;;0.50;0.50;;;;;;;;4809969;29;8819;-96
2023/08/10 11:36:41;;;;;;;;;1.00;1.00;;;;;;;;4824772;29;9751;-96
2023/08/10 11:39:07;;;;;;;;;1.00;1.00;;;;;;;;4824885;29;8945;-96
2023/08/10 11:41:42;;;;;;;;;0.00;0.00;;;;;;;;4824660;29;8827;-96
2023/08/10 11:44:07;;;;;;;;;1.00;1.00;;;;;;;;4827718;29;8807;-96
2023/08/10 11:46:33;;;;;;;;;1.33;1.33;;;;;;;;4825248;29;8854;-96
2023/08/10 11:48:59;;;;;;;;;0.00;0.00;;;;;;;;4827330;29;8831;-96
2023/08/10 11:51:31;;;;;;;;;0.00;0.00;;;;;;;;4813128;29;8866;-96
2023/08/10 11:53:56;;;;;;;;;0.75;0.75;;;;;;;;4812920;29;8816;-96
2023/08/10 11:56:22;;;;;;;;;0.00;0.00;;;;;;;;4813118;29;8898;-96
2023/08/10 11:58:50;;;;;;;;;1.00;1.00;;;;;;;;4828130;29;8827;-96
2023/08/10 12:01:18;;;;;;;;;1.00;1.00;;;;;;;;4824038;29;8873;-96
2023/08/10 12:03:53;;;;;;;;;1.00;1.00;;;;;;;;4809379;29;8815;-96
2023/08/10 12:06:20;;;;;;;;;0.00;0.00;;;;;;;;4830493;29;8748;-96
2023/08/10 12:08:51;;;;;;;;;0.50;0.50;;;;;;;;4820045;29;8803;-96
2023/08/10 12:11:28;;;;;;;;;1.00;1.00;;;;;;;;4829538;24;8774;-96
2023/08/10 12:36:26;;;;;;;;;0.00;0.00;;;;;;;;4808773;29;8809;-94
2023/08/10 12:39:01;;;;;;;;;0.00;0.00;;;;;;;;4790066;29;9635;-93
2023/08/10 12:41:28;;;;;;;;;0.00;0.00;;;;;;;;4770474;29;8858;-94
2023/08/10 12:43:56;;;;;;;;;0.00;0.00;;;;;;;;4775437;29;8835;-94
2023/08/10 12:46:21;;;;;;;;;1.00;1.00;;;;;;;;4775031;29;8831;-94
2023/08/10 12:48:46;;;;;;;;;1.00;1.00;;;;;;;;4775433;29;8921;-94
2023/08/10 12:51:13;;;;;;;;;1.00;1.00;;;;;;;;4801190;29;8864;-96
2023/08/10 12:53:38;;;;;;;;;2.00;0.75;;;;;;;;4795555;29;8771;-96
2023/08/10 12:59:44;;;;;;;;;1.00;1.00;;;;;;;;4988922;24;8834;-93
2023/08/10 13:02:11;;;;;;;;;0.00;0.00;;;;;;;;4793956;29;8905;-92
2023/08/10 13:46:16;;;;;;;;;0.00;0.00;;;;;;;;5014988;24;8543;-96
2023/08/10 13:57:11;;;;;;;;;0.00;0.00;;;;;;;;4920468;24;8822;-96
2023/08/10 14:05:36;;;;;;;;;0.00;0.00;;;;;;;;4938015;24;8933;-96
2023/08/10 19:04:57;;;;;;;;;2.00;2.00;;;;;;;;4898460;24;8995;-95
2023/08/10 19:07:22;;;;;;;;;2.75;2.75;;;;;;;;4778685;29;8837;-92
2023/08/10 19:09:48;;;;;;;;;2.67;2.67;;;;;;;;4807579;29;8875;-93
2023/08/10 19:12:14;;;;;;;;;2.00;2.00;;;;;;;;4810413;29;8855;-93
2023/08/10 19:14:39;;;;;;;;;3.00;3.00;;;;;;;;4808687;29;8862;-96
2023/08/10 19:17:04;;;;;;;;;3.00;3.00;;;;;;;;4808339;29;8884;-96
2023/08/10 19:19:29;;;;;;;;;3.00;3.00;;;;;;;;4807214;29;9003;-96
2023/08/10 19:21:55;;;;;;;;;3.00;3.00;;;;;;;;4818053;29;9025;-95
2023/08/10 19:24:20;;;;;;;;;4.00;4.00;;;;;;;;4810491;29;8851;-94
2023/08/10 19:26:46;;;;;;;;;3.00;3.00;;;;;;;;4808250;29;9361;-95
2023/08/10 19:29:11;;;;;;;;;4.00;4.00;;;;;;;;4806438;29;8866;-95
2023/08/10 19:31:37;;;;;;;;;4.00;4.00;;;;;;;;4809380;29;8899;-93
2023/08/10 19:34:02;;;;;;;;;3.33;3.33;;;;;;;;4814846;29;8918;-93
2023/08/10 19:36:27;;;;;;;;;2.67;2.67;;;;;;;;4815108;29;8868;-95
2023/08/10 19:39:02;;;;;;;;;3.00;3.00;;;;;;;;4807119;29;9018;-96
2023/08/10 19:41:27;;;;;;;;;4.00;4.00;;;;;;;;4805410;29;8843;-95
2023/08/10 19:43:53;;;;;;;;;3.00;3.00;;;;;;;;4815326;29;8971;-95
2023/08/10 19:46:18;;;;;;;;;3.67;3.67;;;;;;;;4806440;29;8849;-94
2023/08/10 19:48:43;;;;;;;;;3.00;3.00;;;;;;;;4805297;29;8967;-94
2023/08/10 19:51:09;;;;;;;;;2.00;2.00;;;;;;;;4789523;29;8956;-95
2023/08/10 19:53:34;;;;;;;;;3.00;3.00;;;;;;;;4789396;29;8992;-94
2023/08/10 19:55:59;;;;;;;;;2.00;2.00;;;;;;;;4798529;29;8883;-95
2023/08/10 19:58:26;;;;;;;;;3.00;3.00;;;;;;;;4801626;29;8902;-95
2023/08/10 20:00:51;;;;;;;;;2.75;2.75;;;;;;;;4798545;29;8835;-94
2023/08/10 20:03:17;;;;;;;;;4.00;4.00;;;;;;;;4790420;29;8863;-94
2023/08/10 20:05:42;;;;;;;;;2.00;2.00;;;;;;;;4807305;29;8863;-94
2023/08/10 20:08:08;;;;;;;;;2.00;2.00;;;;;;;;4808083;29;8954;-95
2023/08/10 20:10:33;;;;;;;;;3.00;3.00;;;;;;;;4794572;29;8898;-94
2023/08/10 20:13:06;;;;;;;;;2.00;2.00;;;;;;;;4792214;29;8928;-96
2023/08/10 20:15:34;;;;;;;;;2.00;2.00;;;;;;;;4794809;29;8853;-95
2023/08/10 20:18:00;;;;;;;;;2.75;2.75;;;;;;;;4796045;29;8865;-94
2023/08/10 20:20:26;;;;;;;;;2.00;2.00;;;;;;;;4790911;29;8846;-95
2023/08/10 20:22:51;;;;;;;;;2.67;2.67;;;;;;;;4796474;29;8863;-94
2023/08/10 20:25:17;;;;;;;;;4.33;4.33;;;;;;;;4793279;29;8956;-96
2023/08/10 20:27:43;;;;;;;;;3.00;2.33;;;;;;;;4793005;29;8850;-95
2023/08/10 20:30:09;;;;;;;;;4.00;4.00;;;;;;;;4792919;29;8901;-95
2023/08/10 20:32:34;;;;;;;;;8.67;8.67;;;;;;;;4796627;29;8858;-94
2023/08/10 20:34:59;;;;;;;;;18.00;15.00;;;;;;;;4806289;29;11630;-94
2023/08/10 20:37:25;;;;;;;;;14.00;14.00;;;;;;;;4793835;29;8850;-95
2023/08/10 20:39:50;;;;;;;;;8.33;8.33;;;;;;;;4798031;29;8899;-94
2023/08/10 20:42:15;;;;;;;;;8.67;8.67;;;;;;;;4811062;29;8913;-94
2023/08/10 20:44:40;;;;;;;;;8.67;8.00;;;;;;;;4796346;29;8905;-93
2023/08/10 20:47:06;;;;;;;;;9.00;9.00;;;;;;;;4801793;29;8854;-94
2023/08/10 20:49:31;;;;;;;;;10.33;7.33;;;;;;;;4792905;29;8858;-95
2023/08/10 20:51:56;;;;;;;;;4.33;4.33;;;;;;;;4796808;29;9698;-94
2023/08/10 20:54:21;;;;;;;;;5.00;5.00;;;;;;;;4804378;29;8878;-95
2023/08/10 20:56:47;;;;;;;;;2.67;2.67;;;;;;;;4793504;29;8914;-95
2023/08/10 20:59:12;;;;;;;;;3.00;3.00;;;;;;;;4803582;29;8857;-95
2023/08/10 21:01:38;;;;;;;;;3.33;3.33;;;;;;;;4791104;29;8946;-95
2023/08/10 21:04:04;;;;;;;;;3.50;3.50;;;;;;;;4805329;29;8851;-95
2023/08/10 21:06:30;;;;;;;;;3.00;3.00;;;;;;;;4807597;29;8890;-94
2023/08/10 21:08:56;;;;;;;;;2.67;2.67;;;;;;;;4810405;29;8855;-95
2023/08/10 21:11:21;;;;;;;;;3.75;3.75;;;;;;;;4803680;29;8968;-94
2023/08/10 21:13:48;;;;;;;;;3.00;3.00;;;;;;;;4792091;29;8945;-95
2023/08/10 21:16:14;;;;;;;;;3.25;3.25;;;;;;;;4792576;29;8770;-95
2023/08/10 21:18:39;;;;;;;;;2.33;2.33;;;;;;;;4798498;29;8850;-95
2023/08/10 21:21:04;;;;;;;;;2.67;2.67;;;;;;;;4811893;29;8865;-94
2023/08/10 21:23:29;;;;;;;;;1.67;1.67;;;;;;;;4810876;29;8867;-95
2023/08/10 21:25:55;;;;;;;;;2.00;2.00;;;;;;;;4810588;29;8975;-95
2023/08/10 21:28:20;;;;;;;;;2.33;2.33;;;;;;;;4814444;29;8864;-95
2023/08/10 21:30:45;;;;;;;;;2.00;2.00;;;;;;;;4806975;29;8959;-94
2023/08/10 21:33:11;;;;;;;;;2.33;2.33;;;;;;;;4818198;29;8991;-94
2023/08/10 21:35:36;;;;;;;;;1.00;1.00;;;;;;;;4815376;29;8859;-95
2023/08/10 21:38:01;;;;;;;;;3.00;3.00;;;;;;;;4801658;29;8835;-94
2023/08/10 21:40:29;;;;;;;;;0.00;0.00;;;;;;;;4805653;29;8969;-94
2023/08/10 21:42:55;;;;;;;;;3.00;3.00;;;;;;;;4818649;29;8871;-95
2023/08/10 21:45:20;;;;;;;;;2.67;2.67;;;;;;;;4808905;29;8923;-95
2023/08/10 21:47:46;;;;;;;;;2.33;2.33;;;;;;;;4811601;29;8840;-95
2023/08/10 21:50:11;;;;;;;;;1.33;1.33;;;;;;;;4814045;29;8880;-95
2023/08/10 21:52:36;;;;;;;;;2.00;2.00;;;;;;;;4811248;29;8877;-95
2023/08/10 21:55:03;;;;;;;;;2.00;2.00;;;;;;;;4812247;29;8911;-95
2023/08/10 21:57:28;;;;;;;;;2.50;2.50;;;;;;;;4815103;29;9764;-95
2023/08/10 21:59:53;;;;;;;;;1.00;1.00;;;;;;;;4805981;29;8981;-95
2023/08/10 22:02:18;;;;;;;;;1.00;1.00;;;;;;;;4817906;29;8844;-95
2023/08/10 22:04:46;;;;;;;;;2.00;2.00;;;;;;;;4812695;29;9633;-94
2023/08/10 22:07:12;;;;;;;;;2.00;2.00;;;;;;;;4814473;29;8821;-94
2023/08/10 22:09:37;;;;;;;;;2.00;2.00;;;;;;;;4810125;29;8872;-95
2023/08/10 22:12:04;;;;;;;;;1.00;1.00;;;;;;;;4816647;29;8868;-95
2023/08/10 22:14:29;;;;;;;;;2.25;2.25;;;;;;;;4809093;29;8760;-95
2023/08/10 22:16:54;;;;;;;;;2.00;2.00;;;;;;;;4813862;29;8825;-94
2023/08/10 22:19:20;;;;;;;;;2.00;2.00;;;;;;;;4817203;29;9055;-95
2023/08/10 22:21:45;;;;;;;;;2.67;2.67;;;;;;;;4812823;29;9783;-94
2023/08/10 22:24:10;;;;;;;;;1.67;1.67;;;;;;;;4814391;29;8837;-94
2023/08/10 22:26:36;;;;;;;;;3.00;3.00;;;;;;;;4819192;29;8926;-94
2023/08/10 22:29:01;;;;;;;;;2.00;2.00;;;;;;;;4811325;29;8855;-94
2023/08/10 22:31:27;;;;;;;;;1.33;1.33;;;;;;;;4809314;29;8851;-94
2023/08/10 22:33:52;;;;;;;;;2.00;2.00;;;;;;;;4816009;29;8859;-95
2023/08/10 22:36:17;;;;;;;;;2.33;1.67;;;;;;;;4814192;29;8851;-95
2023/08/10 22:38:43;;;;;;;;;3.00;3.00;;;;;;;;4811497;29;8912;-95
2023/08/10 22:41:08;;;;;;;;;1.33;1.33;;;;;;;;4810843;29;9576;-94
2023/08/10 22:43:34;;;;;;;;;2.00;2.00;;;;;;;;4808774;29;9627;-94
2023/08/10 22:45:59;;;;;;;;;3.00;3.00;;;;;;;;4813001;29;8963;-95
2023/08/10 22:48:24;;;;;;;;;2.00;2.00;;;;;;;;4815310;29;8837;-95
2023/08/10 22:50:49;;;;;;;;;1.00;1.00;;;;;;;;4815908;29;8870;-95
2023/08/10 22:53:14;;;;;;;;;3.00;3.00;;;;;;;;4806383;29;8882;-95
2023/08/10 22:55:40;;;;;;;;;1.00;1.00;;;;;;;;4816122;29;8847;-95
2023/08/10 22:58:05;;;;;;;;;2.00;2.00;;;;;;;;4809522;29;8963;-95
2023/08/10 23:00:30;;;;;;;;;3.00;3.00;;;;;;;;4804945;29;8863;-95
2023/08/10 23:02:56;;;;;;;;;2.00;2.00;;;;;;;;4809995;29;8911;-94
2023/08/10 23:05:21;;;;;;;;;2.00;2.00;;;;;;;;4813805;29;8829;-95
2023/08/10 23:07:46;;;;;;;;;2.00;2.00;;;;;;;;4810035;29;8951;-94
2023/08/10 23:10:12;;;;;;;;;2.00;2.00;;;;;;;;4807466;29;8931;-94
2023/08/10 23:12:37;;;;;;;;;3.00;3.00;;;;;;;;4813448;29;8899;-95
2023/08/10 23:15:02;;;;;;;;;2.00;2.00;;;;;;;;4811469;29;8885;-94
2023/08/10 23:17:28;;;;;;;;;2.33;2.33;;;;;;;;4812180;29;8870;-95
2023/08/10 23:20:00;;;;;;;;;3.33;3.33;;;;;;;;4816610;29;8828;-94
2023/08/10 23:22:25;;;;;;;;;2.25;2.25;;;;;;;;4811584;29;10827;-94
2023/08/10 23:24:50;;;;;;;;;2.00;2.00;;;;;;;;4810095;29;8851;-95
2023/08/10 23:27:16;;;;;;;;;4.00;4.00;;;;;;;;4811717;29;8972;-94
2023/08/10 23:29:41;;;;;;;;;2.67;2.67;;;;;;;;4812584;29;8926;-94
2023/08/10 23:32:07;;;;;;;;;4.00;3.00;;;;;;;;4809058;29;8995;-95
2023/08/10 23:34:32;;;;;;;;;2.00;2.00;;;;;;;;4807389;29;8875;-96
2023/08/10 23:36:57;;;;;;;;;4.00;4.00;;;;;;;;4812958;29;8948;-94
2023/08/10 23:39:26;;;;;;;;;3.00;3.00;;;;;;;;4808823;29;8927;-94
2023/08/10 23:41:51;;;;;;;;;3.25;3.25;;;;;;;;4810069;29;9008;-95
2023/08/10 23:44:17;;;;;;;;;3.00;3.00;;;;;;;;4814435;29;8951;-94
2023/08/10 23:46:42;;;;;;;;;2.00;2.00;;;;;;;;4811863;29;8867;-94
2023/08/10 23:49:07;;;;;;;;;4.33;3.00;;;;;;;;4812975;29;8877;-96
2023/08/10 23:51:32;;;;;;;;;3.00;3.00;;;;;;;;4817090;29;8888;-95
2023/08/10 23:53:58;;;;;;;;;2.00;2.00;;;;;;;;4811219;29;8859;-94
2023/08/10 23:56:23;;;;;;;;;3.33;3.33;;;;;;;;4800197;29;8993;-95
2023/08/10 23:58:48;;;;;;;;;3.00;3.00;;;;;;;;4801970;29;8884;-95
